createdAt,value
2022-11-10T00:02:47.384Z,34.95
2022-11-10T00:08:15.133Z,38.53
2022-11-10T00:14:01.353Z,36.97
2022-11-10T00:19:26.086Z,39.42
2022-11-10T00:24:52.200Z,34.28
2022-11-10T00:30:17.657Z,40.85
2022-11-10T00:35:42.578Z,31.35
2022-11-10T00:41:08.915Z,40.50
2022-11-10T00:46:34.167Z,41.13
2022-11-10T00:51:59.171Z,37.40
2022-11-10T00:57:25.823Z,37.30
2022-11-10T01:02:50.538Z,39.08
2022-11-10T01:08:15.046Z,38.45
2022-11-10T01:13:41.495Z,34.75
2022-11-10T01:19:06.528Z,30.33
2022-11-10T01:24:30.997Z,34.95
2022-11-10T01:29:58.108Z,32.47
2022-11-10T01:35:23.207Z,32.97
2022-11-10T01:40:48.108Z,36.30
2022-11-10T01:46:15.788Z,41.95
2022-11-10T01:51:46.796Z,38.85
2022-11-10T01:57:15.627Z,40.03
2022-11-10T02:08:12.750Z,38.05
2022-11-10T02:13:38.035Z,40.58
2022-11-10T02:19:17.637Z,39.22
2022-11-10T02:24:43.862Z,36.40
2022-11-10T02:30:10.884Z,32.13
2022-11-10T02:35:35.318Z,36.38
2022-11-10T02:41:01.316Z,35.22
2022-11-10T02:46:26.357Z,33.45
2022-11-10T02:51:51.178Z,44.00
2022-11-10T02:57:17.285Z,33.17
2022-11-10T03:02:41.997Z,35.75
2022-11-10T03:08:07.616Z,34.00
2022-11-10T03:13:58.496Z,31.48
2022-11-10T03:19:19.308Z,37.53
2022-11-10T03:24:44.260Z,34.97
2022-11-10T03:30:12.289Z,31.33
2022-11-10T03:35:55.235Z,39.58
2022-11-10T03:41:20.858Z,36.05
2022-11-10T03:46:51.417Z,37.47
2022-11-10T03:52:17.144Z,38.42
2022-11-10T03:57:42.175Z,35.13
2022-11-10T04:03:08.285Z,34.92
2022-11-10T04:08:50.413Z,31.38
2022-11-10T04:14:33.293Z,31.30
2022-11-10T04:19:59.477Z,32.00
2022-11-10T04:25:24.348Z,34.35
2022-11-10T04:30:49.177Z,33.83
2022-11-10T04:36:17.790Z,30.45
2022-11-10T04:41:42.476Z,34.47
2022-11-10T04:47:11.631Z,32.97
2022-11-10T04:52:38.495Z,36.38
2022-11-10T04:58:03.163Z,42.13
2022-11-10T05:03:29.775Z,42.47
2022-11-10T05:08:56.890Z,35.67
2022-11-10T05:14:21.629Z,32.50
2022-11-10T05:19:47.698Z,33.92
2022-11-10T05:25:13.954Z,35.30
2022-11-10T05:30:40.118Z,31.63
2022-11-10T05:36:05.484Z,33.55
2022-11-10T05:41:31.868Z,36.35
2022-11-10T05:46:56.734Z,32.10
2022-11-10T05:52:21.733Z,35.05
2022-11-10T05:57:49.894Z,36.08
2022-11-10T06:03:18.238Z,32.97
2022-11-10T06:08:43.378Z,35.78
2022-11-10T06:14:09.825Z,35.40
2022-11-10T06:19:34.547Z,36.13
2022-11-10T06:25:00.239Z,35.53
2022-11-10T06:30:26.968Z,33.00
2022-11-10T06:35:52.039Z,33.40
2022-11-10T06:41:21.238Z,35.13
2022-11-10T06:46:50.560Z,32.05
2022-11-10T06:52:15.805Z,32.20
2022-11-10T06:57:41.104Z,41.20
2022-11-10T07:03:11.896Z,35.83
2022-11-10T07:08:36.728Z,35.95
2022-11-10T07:14:01.169Z,34.35
2022-11-10T07:19:27.067Z,36.60
2022-11-10T07:24:51.579Z,33.65
2022-11-10T07:30:16.922Z,36.42
2022-11-10T07:35:43.589Z,30.88
2022-11-10T07:41:08.264Z,30.05
2022-11-10T07:46:33.029Z,35.38
2022-11-10T07:51:58.913Z,34.17
2022-11-10T07:57:23.637Z,31.15
2022-11-10T08:02:48.762Z,32.40
2022-11-10T08:08:15.489Z,32.80
2022-11-10T08:13:40.891Z,32.08
2022-11-10T08:19:05.434Z,32.65
2022-11-10T08:24:31.890Z,32.03
2022-11-10T08:29:56.702Z,31.27
2022-11-10T08:35:21.611Z,31.15
2022-11-10T08:40:48.294Z,30.75
2022-11-10T08:46:12.592Z,31.42
2022-11-10T08:51:39.198Z,30.10
2022-11-10T08:57:05.702Z,28.63
2022-11-10T09:02:30.792Z,28.35
2022-11-10T09:07:56.064Z,23.40
2022-11-10T09:13:29.143Z,31.98
2022-11-10T09:18:54.900Z,30.30
2022-11-10T09:24:19.655Z,29.38
2022-11-10T09:29:45.785Z,27.65
2022-11-10T09:35:10.443Z,27.17
2022-11-10T09:40:51.076Z,22.45
2022-11-10T09:46:24.950Z,25.00
2022-11-10T09:51:50.990Z,30.00
2022-11-10T09:57:20.613Z,24.75
2022-11-10T10:02:52.270Z,25.25
2022-11-10T10:08:33.908Z,23.95
2022-11-10T10:14:20.301Z,26.77
2022-11-10T10:19:57.493Z,20.55
2022-11-10T10:25:27.408Z,21.98
2022-11-10T10:30:52.198Z,22.13
2022-11-10T10:36:21.978Z,25.63
2022-11-10T10:41:48.053Z,20.30
2022-11-10T10:47:12.653Z,21.38
2022-11-10T10:52:39.107Z,24.65
2022-11-10T10:58:06.671Z,20.55
2022-11-10T11:03:41.194Z,19.17
2022-11-10T11:09:18.023Z,21.90
2022-11-10T11:14:45.982Z,17.85
2022-11-10T11:20:16.196Z,15.05
2022-11-10T11:25:47.024Z,15.90
2022-11-10T11:31:21.779Z,15.25
2022-11-10T11:36:54.869Z,21.65
2022-11-10T11:42:34.524Z,14.70
2022-11-10T11:48:21.490Z,19.85
2022-11-10T11:54:26.846Z,14.60
2022-11-10T12:00:10.796Z,10.80
2022-11-10T12:05:51.137Z,12.35
2022-11-10T12:11:30.887Z,12.18
2022-11-10T12:17:07.344Z,12.38
2022-11-10T12:22:44.861Z,11.00
2022-11-10T12:28:17.873Z,11.38
2022-11-10T12:33:49.065Z,10.45
2022-11-10T12:39:21.816Z,10.50
2022-11-10T12:45:02.054Z,11.07
2022-11-10T12:50:42.669Z,10.73
2022-11-10T12:56:14.936Z,9.77
2022-11-10T13:01:45.594Z,10.18
2022-11-10T13:07:14.649Z,14.15
2022-11-10T13:12:59.270Z,13.88
2022-11-10T13:19:01.140Z,8.60
2022-11-10T13:24:28.815Z,8.23
2022-11-10T13:29:58.319Z,7.75
2022-11-10T13:36:02.861Z,8.98
2022-11-10T13:41:29.568Z,7.82
2022-11-10T13:47:41.517Z,7.00
2022-11-10T13:53:25.343Z,7.43
2022-11-10T13:58:52.845Z,7.55
2022-11-10T14:04:43.250Z,8.30
2022-11-10T14:10:16.876Z,10.38
2022-11-10T14:15:46.709Z,9.15
2022-11-10T14:21:23.901Z,7.72
2022-11-10T14:26:53.733Z,7.88
2022-11-10T14:32:23.318Z,10.02
2022-11-10T14:37:48.467Z,6.13
2022-11-10T14:43:29.298Z,7.85
2022-11-10T14:49:02.304Z,10.25
2022-11-10T14:54:29.802Z,15.32
2022-11-10T14:59:54.951Z,12.57
2022-11-10T15:05:21.584Z,9.00
2022-11-10T15:10:49.869Z,7.80
2022-11-10T15:16:26.913Z,6.25
2022-11-10T15:21:53.211Z,8.85
2022-11-10T15:27:27.233Z,8.85
2022-11-10T15:32:52.208Z,10.98
2022-11-10T15:38:33.023Z,11.32
2022-11-10T15:43:58.109Z,11.32
2022-11-10T15:49:26.704Z,11.27
2022-11-10T15:54:53.800Z,7.85
2022-11-10T16:00:19.408Z,9.05
2022-11-10T16:05:44.721Z,11.95
2022-11-10T16:11:18.338Z,8.57
2022-11-10T16:16:43.590Z,12.60
2022-11-10T16:22:08.383Z,13.88
2022-11-10T16:27:39.385Z,14.05
2022-11-10T16:33:04.919Z,20.38
2022-11-10T16:38:32.173Z,12.00
2022-11-10T16:43:58.611Z,13.68
2022-11-10T16:49:33.394Z,10.02
2022-11-10T16:54:58.416Z,9.35
2022-11-10T17:00:25.899Z,16.02
2022-11-10T17:05:51.362Z,12.20
2022-11-10T17:11:16.873Z,14.23
2022-11-10T17:16:46.101Z,16.35
2022-11-10T17:22:12.804Z,14.63
2022-11-10T17:27:38.739Z,16.48
2022-11-10T17:33:05.904Z,19.45
2022-11-10T17:38:34.999Z,14.23
2022-11-10T17:44:00.448Z,12.77
2022-11-10T17:49:27.411Z,18.05
2022-11-10T17:54:52.691Z,17.30
2022-11-10T18:00:20.926Z,20.25
2022-11-10T18:05:48.924Z,19.45
2022-11-10T18:11:17.052Z,18.42
2022-11-10T18:16:43.812Z,18.98
2022-11-10T18:22:10.703Z,16.90
2022-11-10T18:27:36.718Z,13.90
2022-11-10T18:33:04.518Z,19.10
2022-11-10T18:38:31.982Z,26.85
2022-11-10T18:43:57.881Z,10.85
2022-11-10T18:49:23.145Z,15.27
2022-11-10T18:54:50.353Z,11.85
2022-11-10T19:00:17.044Z,19.67
2022-11-10T19:05:43.646Z,16.20
2022-11-10T19:11:15.522Z,14.00
2022-11-10T19:16:41.708Z,12.45
2022-11-10T19:22:11.642Z,12.20
2022-11-10T19:27:40.124Z,11.83
2022-11-10T19:39:21.928Z,11.00
2022-11-10T19:44:50.357Z,17.17
2022-11-10T19:58:35.427Z,10.73
2022-11-10T20:04:04.723Z,10.18
2022-11-10T20:09:36.146Z,13.65
2022-11-10T20:15:01.359Z,10.43
2022-11-10T20:20:30.292Z,10.02
2022-11-10T20:31:31.470Z,12.57
2022-11-10T21:01:04.549Z,12.40
2022-11-10T21:06:30.769Z,18.27
2022-11-10T21:12:14.309Z,19.17
2022-11-10T21:17:44.256Z,17.38
2022-11-10T21:23:09.565Z,10.10
2022-11-10T21:28:36.109Z,14.05
2022-11-10T21:34:02.504Z,9.43
2022-11-10T21:39:27.164Z,14.93
2022-11-10T21:44:52.156Z,10.25
2022-11-10T21:50:19.178Z,9.95
2022-11-10T21:55:44.250Z,8.02
2022-11-10T22:01:13.546Z,17.67
2022-11-10T22:06:57.981Z,23.13
2022-11-10T22:12:48.510Z,11.35
2022-11-10T22:18:48.748Z,13.07
2022-11-10T22:24:28.195Z,18.63
2022-11-10T22:29:53.335Z,13.43
2022-11-10T22:35:31.963Z,11.15
2022-11-10T22:41:17.038Z,10.68
2022-11-10T22:46:46.116Z,13.57
2022-11-10T22:52:11.265Z,10.65
2022-11-10T22:57:38.010Z,11.85
2022-11-10T23:03:02.954Z,12.80
2022-11-10T23:08:28.308Z,12.77
2022-11-10T23:13:54.555Z,12.73
2022-11-10T23:19:19.546Z,16.15
2022-11-10T23:24:44.296Z,12.50
2022-11-10T23:30:13.348Z,11.18
2022-11-10T23:35:38.559Z,14.07
2022-11-10T23:41:05.117Z,12.90
2022-11-10T23:46:31.702Z,14.45
2022-11-10T23:51:56.229Z,12.05
2022-11-10T23:57:21.085Z,13.23
